Time;durP1;ratioP1;P1;durP2;ratioP2;P2;SDS_P1;SDS_P2;PMS_P1;PMS_P2;Temp;Humidity;BMP_temperature;BMP_pressure;BME280_temperature;BME280_humidity;BME280_pressure;Samples;Min_cycle;Max_cycle;Signal;HPM_P1;HPM_P2
2021/12/14 00:02:18;;;;;;;7.80;7.00;;;;;;;10.66;56.28;100336.33;1800436;78;21034;-64
2021/12/14 00:04:46;;;;;;;8.35;7.47;;;;;;;10.66;56.27;100336.33;1803417;77;22034;-66
2021/12/14 00:07:14;;;;;;;8.05;7.25;;;;;;;10.66;56.24;100342.97;1818786;78;21065;-65
2021/12/14 00:09:42;;;;;;;8.18;7.05;;;;;;;10.66;56.25;100346.95;1797624;77;21150;-66
2021/12/14 00:12:32;;;;;;;8.35;6.62;;;;;;;10.65;56.24;100349.29;1815169;77;21013;-65
2021/12/14 00:15:04;;;;;;;7.87;6.95;;;;;;;10.66;56.21;100357.58;1796320;78;21490;-64
2021/12/14 00:17:36;;;;;;;7.92;6.47;;;;;;;10.66;56.21;100354.42;1805457;78;21077;-65
2021/12/14 00:20:09;;;;;;;7.58;6.83;;;;;;;10.65;56.21;100356.75;1792946;78;20987;-65
2021/12/14 00:24:06;;;;;;;8.58;7.12;;;;;;;10.64;56.22;100353.74;1794758;78;21058;-66
2021/12/14 00:25:07;;;;;;;7.08;6.37;;;;;;;10.64;56.21;100351.09;1799499;78;21017;-65
2021/12/14 00:27:34;;;;;;;7.60;6.80;;;;;;;10.64;56.20;100352.41;1808637;78;21021;-66
2021/12/14 00:30:03;;;;;;;7.20;6.45;;;;;;;10.63;56.18;100356.91;1783689;79;22688;-65
2021/12/14 00:32:33;;;;;;;6.92;6.22;;;;;;;10.64;56.19;100356.40;1807655;77;21492;-65
2021/12/14 00:35:02;;;;;;;7.12;6.42;;;;;;;10.64;56.15;100348.43;1790951;79;21068;-66
2021/12/14 00:37:33;;;;;;;6.90;6.03;;;;;;;10.65;56.14;100349.29;1785786;79;21049;-66
2021/12/14 00:40:04;;;;;;;7.58;6.75;;;;;;;10.65;56.15;100346.63;1801974;78;21081;-66
2021/12/14 00:42:31;;;;;;;7.57;6.83;;;;;;;10.63;56.13;100351.59;1799691;78;21327;-66
2021/12/14 00:44:58;;;;;;;7.37;6.67;;;;;;;10.65;56.13;100347.95;1806150;78;21547;-64
2021/12/14 00:47:24;;;;;;;8.10;6.87;;;;;;;10.63;56.11;100344.95;1785982;78;21040;-65
2021/12/14 00:49:53;;;;;;;8.85;7.00;;;;;;;10.64;56.10;100348.43;1803499;79;20995;-65
2021/12/14 00:52:19;;;;;;;6.53;5.87;;;;;;;10.65;56.07;100346.63;1797148;79;21522;-65
2021/12/14 00:54:45;;;;;;;7.05;5.87;;;;;;;10.65;56.06;100349.29;1792706;79;21131;-65
2021/12/14 00:57:12;;;;;;;8.05;6.75;;;;;;;10.63;56.07;100347.60;1798366;78;21018;-66
2021/12/14 00:59:38;;;;;;;7.75;6.95;;;;;;;10.65;56.04;100355.43;1795776;78;21009;-65
2021/12/14 01:02:10;;;;;;;7.08;6.37;;;;;;;10.63;56.03;100351.59;1790329;79;21010;-66
2021/12/14 01:04:43;;;;;;;7.05;5.70;;;;;;;10.65;56.02;100353.27;1793056;78;21085;-65
2021/12/14 01:07:10;;;;;;;7.33;6.58;;;;;;;10.64;56.02;100351.09;1793066;79;21130;-66
2021/12/14 01:09:40;;;;;;;7.00;6.30;;;;;;;10.64;56.00;100355.08;1786331;79;20983;-65
2021/12/14 01:12:13;;;;;;;7.58;6.87;;;;;;;10.63;56.00;100354.75;1813202;78;21065;-64
2021/12/14 01:14:48;;;;;;;7.72;6.37;;;;;;;10.63;56.00;100348.94;1805284;78;21017;-65
2021/12/14 01:17:43;;;;;;;6.65;5.95;;;;;;;10.62;56.00;100357.91;1796481;78;21124;-65
2021/12/14 01:20:10;;;;;;;7.12;6.28;;;;;;;10.63;56.00;100352.09;1803794;79;21324;-65
2021/12/14 01:22:44;;;;;;;7.80;7.00;;;;;;;10.60;55.99;100358.56;1803598;79;21541;-64
2021/12/14 01:25:26;;;;;;;7.58;6.78;;;;;;;10.60;56.00;100358.56;1797079;78;21045;-64
2021/12/14 01:28:00;;;;;;;7.12;6.28;;;;;;;10.61;56.00;100359.38;1792164;78;21006;-64
2021/12/14 01:30:49;;;;;;;6.90;6.20;;;;;;;10.60;56.00;100362.55;1782298;79;21053;-65
2021/12/14 01:33:14;;;;;;;7.62;6.53;;;;;;;10.60;55.99;100356.38;1808384;78;21815;-64
2021/12/14 01:35:43;;;;;;;7.78;6.85;;;;;;;10.59;55.99;100358.70;1795706;79;21073;-65
2021/12/14 01:38:22;;;;;;;7.67;6.87;;;;;;;10.59;56.00;100366.67;1796520;78;21033;-65
2021/12/14 01:40:53;;;;;;;7.20;6.50;;;;;;;10.58;55.98;100360.50;1797820;79;21013;-65
2021/12/14 01:43:27;;;;;;;7.20;6.55;;;;;;;10.59;55.99;100367.50;1805704;79;21565;-66
2021/12/14 01:45:55;;;;;;;7.90;7.08;;;;;;;10.57;56.00;100360.68;1798018;78;21534;-65
2021/12/14 01:48:23;;;;;;;7.25;6.22;;;;;;;10.46;55.99;100343.64;1786442;79;21527;-65
2021/12/14 01:51:07;;;;;;;6.75;6.05;;;;;;;10.58;55.97;100364.99;1786831;79;21005;-65
2021/12/14 01:53:43;;;;;;;7.60;6.80;;;;;;;10.58;55.95;100367.65;1790777;79;20982;-64
2021/12/14 01:56:13;;;;;;;7.65;6.85;;;;;;;10.57;55.96;100371.31;1792860;79;21295;-64
2021/12/14 01:58:49;;;;;;;7.40;6.35;;;;;;;10.44;55.94;100349.09;1794889;78;21166;-65
2021/12/14 02:01:20;;;;;;;7.10;6.40;;;;;;;10.57;55.95;100373.97;1794700;79;21021;-64
2021/12/14 02:03:58;;;;;;;7.35;6.62;;;;;;;10.56;55.94;100365.64;1791527;79;21123;-64
2021/12/14 02:06:32;;;;;;;7.67;6.80;;;;;;;10.56;55.92;100368.30;1817790;78;20991;-66
2021/12/14 02:09:05;;;;;;;7.15;6.40;;;;;;;10.56;55.94;100364.31;1785579;79;21050;-66
2021/12/14 02:11:35;;;;;;;7.95;6.97;;;;;;;10.56;55.91;100361.66;1799533;77;21137;-65
2021/12/14 02:14:02;;;;;;;7.17;6.47;;;;;;;10.56;55.92;100365.14;1800833;79;21570;-64
2021/12/14 02:16:28;;;;;;;7.45;6.70;;;;;;;10.56;55.90;100360.33;1798041;78;21106;-65
2021/12/14 02:19:10;;;;;;;6.85;6.15;;;;;;;10.56;55.88;100359.00;1813536;78;21551;-64
2021/12/14 02:21:37;;;;;;;6.87;6.17;;;;;;;10.56;55.88;100360.33;1788711;78;21092;-66
2021/12/14 02:24:06;;;;;;;8.48;6.80;;;;;;;10.56;55.85;100362.98;1797478;79;21140;-65
2021/12/14 02:26:34;;;;;;;7.00;6.30;;;;;;;10.56;55.85;100360.33;1796350;78;21187;-65
2021/12/14 02:29:04;;;;;;;7.10;6.40;;;;;;;10.55;55.88;100356.84;1785145;79;21014;-64
2021/12/14 02:31:35;;;;;;;8.28;6.58;;;;;;;10.56;55.86;100357.16;1788260;79;21054;-64
2021/12/14 02:34:02;;;;;;;8.60;7.05;;;;;;;10.56;55.85;100359.00;1798820;79;21065;-65
2021/12/14 02:36:35;;;;;;;7.25;6.55;;;;;;;10.56;55.84;100357.67;1785879;78;21121;-64
2021/12/14 02:42:05;;;;;;;6.62;5.87;;;;;;;10.60;55.83;100357.70;1882587;76;28587;-66
2021/12/14 02:44:32;;;;;;;7.08;6.25;;;;;;;10.57;55.80;100356.70;1855368;77;20987;-65
2021/12/14 02:47:05;;;;;;;7.17;6.47;;;;;;;10.57;55.78;100354.04;1809086;78;21641;-64
2021/12/14 02:49:33;;;;;;;7.22;6.53;;;;;;;10.57;55.77;100360.17;1811850;78;21007;-64
2021/12/14 02:52:05;;;;;;;7.12;6.47;;;;;;;10.58;55.75;100361.00;1814625;78;21038;-65
2021/12/14 02:54:43;;;;;;;7.45;6.62;;;;;;;10.57;55.74;100360.68;1791220;78;21600;-65
2021/12/14 02:57:16;;;;;;;7.92;7.12;;;;;;;10.56;55.74;100361.15;1789065;79;21549;-65
2021/12/14 02:59:43;;;;;;;6.72;6.12;;;;;;;10.56;55.73;100366.97;1788484;78;21786;-65
2021/12/14 03:02:15;;;;;;;6.78;6.15;;;;;;;10.55;55.73;100364.81;1798590;78;21023;-64
2021/12/14 03:04:46;;;;;;;7.45;6.08;;;;;;;10.56;55.73;100373.61;1811505;78;21209;-65
2021/12/14 03:07:14;;;;;;;7.03;6.33;;;;;;;10.43;55.71;100350.10;1816219;78;21726;-64
2021/12/14 03:10:00;;;;;;;6.80;6.20;;;;;;;10.55;55.70;100368.80;1817742;78;21013;-65
2021/12/14 03:12:41;;;;;;;;;;;;;;;10.55;55.69;100365.31;1793183;78;21130;-65
2021/12/14 03:15:25;;;;;;;6.42;5.65;;;;;;;10.55;55.69;100361.33;1800955;78;20196;-65
2021/12/14 03:17:57;;;;;;;6.90;5.90;;;;;;;10.50;55.75;100360.94;1812376;78;21549;-65
2021/12/14 03:20:31;;;;;;;6.35;5.72;;;;;;;10.49;55.78;100364.10;1820916;78;21008;-66
2021/12/14 03:23:13;;;;;;;6.72;6.03;;;;;;;10.50;55.75;100363.59;1800250;78;21092;-65
2021/12/14 03:25:44;;;;;;;6.75;6.15;;;;;;;10.49;55.74;100365.90;1771778;78;21851;-65
2021/12/14 03:28:11;;;;;;;8.05;6.40;;;;;;;10.49;55.75;100365.90;1776298;80;21046;-65
2021/12/14 03:30:50;;;;;;;7.05;6.35;;;;;;;10.48;55.75;100362.41;1782458;80;21088;-65
2021/12/14 03:33:23;;;;;;;7.08;6.37;;;;;;;10.50;55.75;100367.58;1792926;78;21553;-65
2021/12/14 03:36:11;;;;;;;6.97;6.28;;;;;;;10.49;55.73;100362.77;1803407;78;21054;-64
2021/12/14 03:38:42;;;;;;;6.25;5.65;;;;;;;10.49;55.72;100361.45;1814977;78;21097;-64
2021/12/14 03:41:16;;;;;;;6.53;5.92;;;;;;;10.49;55.73;100366.76;1774169;80;21002;-64
2021/12/14 03:43:58;;;;;;;6.50;5.90;;;;;;;10.48;55.73;100366.40;1758355;80;21053;-64
2021/12/14 03:46:32;;;;;;;6.85;6.25;;;;;;;10.47;55.73;100366.55;1764938;80;21245;-64
2021/12/14 03:49:00;;;;;;;6.08;5.47;;;;;;;10.48;55.72;100368.23;1824420;77;21022;-65
2021/12/14 03:51:27;;;;;;;6.78;6.08;;;;;;;10.47;55.69;100371.39;1842798;77;21097;-65
2021/12/14 03:53:55;;;;;;;6.55;5.92;;;;;;;10.48;55.72;100368.23;1832108;77;21123;-66
2021/12/14 03:56:22;;;;;;;6.65;5.85;;;;;;;10.48;55.70;100374.37;1845874;77;21052;-66
2021/12/14 03:58:49;;;;;;;7.03;6.12;;;;;;;10.49;55.67;100375.20;1832986;77;21536;-65
2021/12/14 04:01:24;;;;;;;6.55;5.85;;;;;;;10.48;55.67;100369.56;1835510;77;21057;-65
2021/12/14 04:03:58;;;;;;;6.80;6.10;;;;;;;10.48;55.66;100373.55;1841072;77;21099;-65
2021/12/14 04:06:27;;;;;;;6.28;5.67;;;;;;;10.50;55.63;100380.86;1844514;77;21537;-66
2021/12/14 04:08:54;;;;;;;7.22;6.45;;;;;;;10.49;55.64;100381.37;1827712;77;21061;-65
2021/12/14 04:11:21;;;;;;;6.05;5.45;;;;;;;10.48;55.61;100386.32;1844134;77;20993;-65
2021/12/14 04:13:51;;;;;;;6.50;5.83;;;;;;;10.49;55.60;100389.34;1829482;77;21014;-66
2021/12/14 04:16:22;;;;;;;6.42;5.83;;;;;;;10.49;55.58;100383.16;1829768;77;21104;-66
2021/12/14 04:18:50;;;;;;;7.00;6.30;;;;;;;10.49;55.58;100383.16;1848037;77;20993;-65
2021/12/14 04:21:19;;;;;;;7.03;6.33;;;;;;;10.49;55.57;100389.80;1837223;77;21057;-64
2021/12/14 04:23:50;;;;;;;6.55;5.95;;;;;;;10.49;55.58;100394.65;1840528;77;21080;-65
2021/12/14 04:26:18;;;;;;;7.25;6.53;;;;;;;10.49;55.57;100388.48;1807023;77;21021;-65
2021/12/14 04:28:54;;;;;;;6.50;5.90;;;;;;;10.49;55.56;100394.65;1827289;77;21465;-65
2021/12/14 04:31:22;;;;;;;7.08;6.37;;;;;;;10.49;55.54;100391.14;1837639;77;21007;-65
2021/12/14 04:33:49;;;;;;;6.40;5.78;;;;;;;10.49;55.53;100389.80;1826865;77;20979;-65
2021/12/14 04:36:22;;;;;;;6.58;5.78;;;;;;;10.49;55.51;100393.32;1814556;77;21033;-64
2021/12/14 04:38:57;;;;;;;6.92;6.22;;;;;;;10.49;55.52;100395.98;1826061;77;21045;-65
2021/12/14 04:52:26;;;;;;;7.42;5.87;;;;;;;10.47;55.48;100393.97;1825166;77;20998;-66
2021/12/14 04:54:57;;;;;;;7.00;5.97;;;;;;;10.46;55.50;100399.42;1845940;77;21143;-65
2021/12/14 04:57:45;;;;;;;6.58;5.97;;;;;;;10.46;55.50;100399.42;1843544;77;21069;-65
2021/12/14 05:00:42;;;;;;;6.45;5.85;;;;;;;10.46;55.50;100406.06;1836789;77;22144;-65
2021/12/14 05:03:18;;;;;;;7.92;6.45;;;;;;;10.45;55.49;100401.25;1838874;77;21325;-65
2021/12/14 05:05:57;;;;;;;6.22;5.70;;;;;;;10.43;55.49;100408.04;1818161;77;21081;-65
2021/12/14 05:11:05;;;;;;;6.85;6.15;;;;;;;10.43;55.51;100409.87;1841915;77;20994;-66
2021/12/14 05:13:42;;;;;;;7.30;6.60;;;;;;;10.42;55.49;100418.31;1829528;77;21502;-65
2021/12/14 05:16:19;;;;;;;6.92;6.03;;;;;;;10.42;55.50;100418.31;1853312;77;21025;-65
2021/12/14 05:18:52;;;;;;;7.70;7.00;;;;;;;10.42;55.49;100425.45;1827335;77;20979;-65
2021/12/14 05:21:36;;;;;;;7.22;6.53;;;;;;;10.42;55.49;100422.80;1811495;78;21099;-65
2021/12/14 05:24:05;;;;;;;8.00;6.45;;;;;;;10.41;55.48;100431.27;1811797;78;21024;-65
2021/12/14 05:26:35;;;;;;;7.62;6.90;;;;;;;10.42;55.48;100430.77;1848609;77;21522;-65
2021/12/14 05:29:02;;;;;;;8.50;6.95;;;;;;;10.41;55.49;100433.06;1824161;77;20971;-66
2021/12/14 05:31:29;;;;;;;7.60;6.90;;;;;;;10.41;55.49;100437.91;1838130;77;21060;-66
2021/12/14 05:33:56;;;;;;;8.43;7.50;;;;;;;10.41;55.47;100441.89;1844679;77;21207;-66
2021/12/14 05:36:25;;;;;;;7.95;6.87;;;;;;;10.42;55.44;100441.39;1775880;79;21016;-66
2021/12/14 05:39:18;;;;;;;7.80;7.05;;;;;;;10.43;55.43;100439.09;1807824;78;20983;-65
2021/12/14 05:44:30;;;;;;;8.15;7.00;;;;;;;10.42;55.41;100435.57;1837452;77;21068;-65
2021/12/14 05:47:01;;;;;;;9.18;7.45;;;;;;;10.41;55.41;100435.25;1832749;77;21123;-65
2021/12/14 05:49:29;;;;;;;8.65;7.40;;;;;;;10.42;55.41;100437.41;1825129;77;20999;-66
2021/12/14 05:51:59;;;;;;;8.88;7.60;;;;;;;10.41;55.41;100433.92;1827299;77;21026;-65
2021/12/14 05:54:29;;;;;;;9.35;8.10;;;;;;;10.41;55.40;100439.23;1831291;77;21009;-67
2021/12/14 05:56:58;;;;;;;9.10;8.08;;;;;;;10.41;55.41;100443.69;1826766;77;21029;-66
2021/12/14 05:59:28;;;;;;;9.00;7.83;;;;;;;10.41;55.39;100447.67;1844481;77;21911;-66
2021/12/14 06:01:55;;;;;;;8.58;7.67;;;;;;;10.42;55.36;100441.39;1827872;76;21546;-66
2021/12/14 06:04:28;;;;;;;8.85;7.50;;;;;;;10.41;55.35;100445.88;1818465;77;21029;-67
2021/12/14 06:06:55;;;;;;;9.13;8.20;;;;;;;10.42;55.34;100446.20;1834292;77;21029;-64
2021/12/14 06:09:28;;;;;;;8.88;7.42;;;;;;;10.41;55.33;100444.55;1836756;77;21053;-64
2021/12/14 06:12:03;;;;;;;9.93;7.58;;;;;;;10.41;55.34;100444.55;1819751;77;21644;-65
2021/12/14 06:14:31;;;;;;;8.65;7.75;;;;;;;10.40;55.33;100444.19;1843715;77;21006;-65
2021/12/14 06:17:04;;;;;;;10.03;8.78;;;;;;;10.42;55.33;100444.05;1824673;77;21517;-65
2021/12/14 06:19:35;;;;;;;10.40;8.23;;;;;;;10.41;55.32;100446.34;1838633;77;20978;-66
2021/12/14 06:22:14;;;;;;;9.45;7.95;;;;;;;10.41;55.30;100449.86;1833246;77;21059;-65
2021/12/14 06:24:56;;;;;;;8.83;7.70;;;;;;;10.40;55.29;100446.84;1837592;77;21197;-65
2021/12/14 06:27:26;;;;;;;8.55;7.65;;;;;;;10.41;55.28;100453.84;1817756;77;21052;-64
2021/12/14 06:29:57;;;;;;;10.28;7.83;;;;;;;10.40;55.29;100452.16;1846016;77;21470;-63
2021/12/14 06:32:31;;;;;;;7.97;7.10;;;;;;;10.39;55.28;100455.81;1836437;77;21054;-66
2021/12/14 06:35:07;;;;;;;10.10;8.30;;;;;;;10.40;55.28;100453.98;1840886;77;21060;-65
2021/12/14 06:38:21;;;;;;;9.35;8.35;;;;;;;10.40;55.27;100454.81;1835666;77;21785;-66
2021/12/14 06:40:43;;;;;;;9.28;7.20;;;;;;;10.40;55.27;100461.45;1829493;77;21466;-66
2021/12/14 06:43:19;;;;;;;9.03;7.62;;;;;;;10.39;55.27;100457.14;1809593;77;21073;-65
2021/12/14 06:45:55;;;;;;;9.48;7.80;;;;;;;10.38;55.28;100458.61;1805821;77;21010;-65
2021/12/14 06:48:20;;;;;;;11.45;8.08;;;;;;;10.38;55.28;100456.78;1823402;77;21033;-65
2021/12/14 06:50:55;;;;;;;8.08;6.90;;;;;;;10.38;55.27;100452.80;1819946;78;21098;-65
2021/12/14 06:53:45;;;;;;;8.68;7.78;;;;;;;10.39;55.26;100458.47;1819584;78;21253;-66
2021/12/14 06:56:17;;;;;;;8.68;7.78;;;;;;;10.38;55.25;100455.45;1825241;77;21029;-66
2021/12/14 06:59:13;;;;;;;8.20;7.05;;;;;;;10.39;55.25;100461.59;1741188;80;21025;-65
2021/12/14 07:02:01;;;;;;;9.45;8.15;;;;;;;10.38;55.24;100459.94;1799041;77;21027;-66
2021/12/14 07:04:34;;;;;;;8.90;8.00;;;;;;;10.27;55.25;100446.33;1823291;77;21127;-65
2021/12/14 07:07:05;;;;;;;10.65;8.03;;;;;;;10.38;55.23;100470.56;1773200;79;21506;-65
2021/12/14 07:09:43;;;;;;;8.63;7.70;;;;;;;10.38;55.25;100471.89;1759420;81;21057;-65
2021/12/14 07:12:16;;;;;;;9.85;7.97;;;;;;;10.38;55.25;100471.39;1805712;78;21005;-65
2021/12/14 07:14:54;;;;;;;9.35;8.23;;;;;;;10.36;55.26;100469.38;1834825;77;21080;-64
2021/12/14 07:17:30;;;;;;;9.33;7.67;;;;;;;10.38;55.24;100480.69;1822990;77;21065;-64
2021/12/14 07:20:17;;;;;;;9.08;8.03;;;;;;;10.38;55.24;100474.05;1810224;78;21498;-64
2021/12/14 07:22:49;;;;;;;8.45;7.55;;;;;;;10.38;55.23;100474.55;1818450;77;21017;-65
2021/12/14 07:25:33;;;;;;;9.78;7.80;;;;;;;10.38;55.24;100470.56;1833938;77;21115;-65
2021/12/14 07:28:15;;;;;;;8.50;7.60;;;;;;;10.37;55.23;100469.73;1818890;77;24971;-65
2021/12/14 07:30:53;;;;;;;9.88;7.65;;;;;;;10.37;55.22;100472.39;1823958;77;21367;-65
2021/12/14 07:33:31;;;;;;;9.83;8.48;;;;;;;10.37;55.22;100471.53;1806955;78;21564;-64
2021/12/14 07:36:10;;;;;;;9.85;8.75;;;;;;;10.37;55.24;100464.89;1825822;77;21007;-65
2021/12/14 07:38:55;;;;;;;11.18;8.53;;;;;;;10.38;55.24;100465.25;1828291;77;21022;-63
2021/12/14 07:41:46;;;;;;;9.63;8.40;;;;;;;10.37;55.23;100472.39;1820073;77;21036;-64
2021/12/14 07:44:25;;;;;;;9.98;8.70;;;;;;;10.37;55.22;100471.06;1808530;76;21147;-64
2021/12/14 07:47:08;;;;;;;8.60;7.58;;;;;;;10.36;55.23;100466.72;1809710;78;21006;-64
2021/12/14 07:49:56;;;;;;;9.33;7.85;;;;;;;10.36;55.24;100469.38;1739989;80;21018;-64
2021/12/14 07:52:36;;;;;;;10.15;7.95;;;;;;;10.36;55.23;100469.88;1817428;78;21069;-66
2021/12/14 07:55:18;;;;;;;9.73;8.13;;;;;;;10.36;55.22;100473.86;1826074;78;21035;-65
2021/12/14 07:57:46;;;;;;;9.88;8.63;;;;;;;10.36;55.25;100477.84;1818647;78;21112;-63
2021/12/14 08:00:23;;;;;;;8.73;7.83;;;;;;;10.36;55.24;100474.69;1831372;76;21528;-64
2021/12/14 08:02:55;;;;;;;8.90;8.00;;;;;;;10.36;55.24;100468.05;1831448;78;21006;-66
2021/12/14 08:05:35;;;;;;;9.47;8.47;;;;;;;10.37;55.22;100471.53;1824571;77;21006;-65
2021/12/14 08:08:17;;;;;;;9.60;8.38;;;;;;;10.37;55.22;100470.20;1828877;78;21094;-66
2021/12/14 08:11:09;;;;;;;9.40;8.23;;;;;;;10.37;55.20;100467.08;1819652;78;21142;-65
2021/12/14 08:13:27;;;;;;;9.53;8.40;;;;;;;10.37;55.20;100469.73;1817613;78;21037;-65
2021/12/14 08:15:57;;;;;;;9.80;8.65;;;;;;;10.37;55.21;100467.55;1827763;78;21246;-66
2021/12/14 08:18:32;;;;;;;8.90;7.80;;;;;;;10.37;55.18;100463.09;1803193;78;21088;-65
2021/12/14 08:21:05;;;;;;;9.75;8.38;;;;;;;10.38;55.16;100462.59;1818405;78;21101;-65
2021/12/14 08:23:39;;;;;;;9.50;8.48;;;;;;;10.39;55.14;100464.25;1813526;78;21594;-65
2021/12/14 08:26:15;;;;;;;10.43;9.00;;;;;;;10.39;55.16;100461.59;1829966;77;20991;-65
2021/12/14 08:28:55;;;;;;;9.48;8.45;;;;;;;10.38;55.13;100462.09;1813309;78;21077;-66
2021/12/14 08:31:25;;;;;;;10.25;8.58;;;;;;;10.39;55.13;100463.78;1826986;76;21058;-66
2021/12/14 08:33:58;;;;;;;9.98;8.93;;;;;;;10.39;55.12;100462.92;1813856;78;21029;-65
2021/12/14 08:36:24;;;;;;;8.28;7.45;;;;;;;10.39;55.09;100465.11;1816223;78;21090;-65
2021/12/14 08:39:12;;;;;;;10.05;8.45;;;;;;;10.40;55.11;100468.59;1816608;78;21029;-65
2021/12/14 08:41:47;;;;;;;9.80;8.40;;;;;;;10.41;55.08;100468.92;1818397;77;21052;-65
2021/12/14 08:44:11;;;;;;;9.23;8.03;;;;;;;10.40;55.07;100468.59;1807170;78;21512;-66
2021/12/14 08:46:38;;;;;;;9.38;8.23;;;;;;;10.40;55.08;100469.42;1815079;78;21620;-66
2021/12/14 08:49:06;;;;;;;9.45;8.45;;;;;;;10.40;55.07;100468.59;1809511;78;21111;-64
2021/12/14 08:51:40;;;;;;;10.00;8.45;;;;;;;10.41;55.06;100471.58;1807590;78;21111;-65
2021/12/14 08:54:24;;;;;;;9.93;8.10;;;;;;;10.41;55.05;100466.27;1814806;78;21092;-66
2021/12/14 08:56:56;;;;;;;9.30;8.35;;;;;;;10.42;55.02;100461.31;1813318;78;21532;-65
2021/12/14 08:59:23;;;;;;;11.10;8.10;;;;;;;10.42;55.02;100465.30;1814687;78;21056;-64
2021/12/14 09:01:50;;;;;;;8.93;7.97;;;;;;;10.42;55.02;100460.81;1807620;78;21064;-65
2021/12/14 09:04:23;;;;;;;9.65;8.55;;;;;;;10.42;55.00;100463.47;1810669;78;21025;-66
2021/12/14 09:06:54;;;;;;;9.60;8.38;;;;;;;10.43;54.97;100463.82;1797406;78;21092;-66
2021/12/14 09:09:22;;;;;;;9.28;8.30;;;;;;;10.43;54.97;100463.82;1817058;78;21549;-64
2021/12/14 09:11:57;;;;;;;8.68;7.67;;;;;;;10.43;54.94;100458.52;1817136;78;21049;-63
2021/12/14 09:14:24;;;;;;;8.50;7.72;;;;;;;10.42;54.98;100454.16;1805956;78;21304;-65
2021/12/14 09:16:54;;;;;;;9.00;8.00;;;;;;;10.45;54.97;100460.16;1795927;78;21032;-65
2021/12/14 09:19:26;;;;;;;9.40;8.43;;;;;;;10.44;54.94;100463.32;1815257;78;21058;-65
2021/12/14 09:21:56;;;;;;;9.18;8.10;;;;;;;10.46;54.94;100463.18;1811965;78;21049;-65
2021/12/14 09:24:25;;;;;;;8.00;7.20;;;;;;;10.46;54.93;100466.66;1818120;78;21032;-66
2021/12/14 09:26:57;;;;;;;8.80;7.85;;;;;;;10.46;54.89;100465.83;1807041;78;21118;-66
2021/12/14 09:29:23;;;;;;;8.50;7.45;;;;;;;10.46;54.92;100464.50;1800450;78;21452;-66
2021/12/14 09:31:52;;;;;;;9.78;8.20;;;;;;;10.47;54.90;100466.16;1773743;80;21048;-66
2021/12/14 09:34:22;;;;;;;8.20;7.37;;;;;;;10.46;54.86;100460.02;1814860;78;21004;-64
2021/12/14 09:36:50;;;;;;;9.18;8.18;;;;;;;10.47;54.85;100464.83;1813786;78;21577;-65
2021/12/14 09:39:25;;;;;;;9.03;7.90;;;;;;;10.47;54.84;100461.70;1811893;78;21161;-65
2021/12/14 09:41:53;;;;;;;8.50;7.60;;;;;;;10.48;54.84;100462.03;1818359;78;21452;-65
2021/12/14 09:44:25;;;;;;;7.83;7.08;;;;;;;10.48;54.82;100462.03;1810831;78;21043;-63
2021/12/14 09:46:52;;;;;;;8.38;7.37;;;;;;;10.49;54.80;100458.88;1816990;78;21000;-66
2021/12/14 09:49:19;;;;;;;8.90;8.00;;;;;;;10.50;54.81;100453.92;1811783;78;22234;-64
2021/12/14 09:51:50;;;;;;;8.88;7.97;;;;;;;10.49;54.78;100443.80;1803709;77;21203;-66
2021/12/14 09:54:19;;;;;;;9.58;8.08;;;;;;;10.50;54.78;100443.30;1802837;78;21060;-69
2021/12/14 09:56:53;;;;;;;9.43;8.08;;;;;;;10.49;54.76;100438.48;1814828;78;21083;-65
2021/12/14 09:59:19;;;;;;;8.75;7.80;;;;;;;10.50;54.76;100440.14;1803115;77;21493;-66
2021/12/14 10:01:54;;;;;;;9.15;7.47;;;;;;;10.50;54.72;100439.31;1812274;77;21229;-65
2021/12/14 10:04:26;;;;;;;8.95;7.67;;;;;;;10.40;54.74;100423.44;1807662;78;21167;-66
2021/12/14 10:06:52;;;;;;;8.65;7.75;;;;;;;10.51;54.70;100436.51;1803175;78;21008;-67
2021/12/14 10:09:24;;;;;;;8.45;7.50;;;;;;;10.52;54.71;100438.66;1789635;78;21053;-67
2021/12/14 10:14:25;;;;;;;7.97;7.17;;;;;;;10.52;54.68;100436.83;1804358;78;21544;-70
2021/12/14 10:16:52;;;;;;;9.10;7.20;;;;;;;10.51;54.68;100427.71;1818104;78;22059;-66
2021/12/14 10:19:22;;;;;;;8.18;7.28;;;;;;;10.52;54.65;100426.20;1805952;78;21003;-66
2021/12/14 10:21:53;;;;;;;8.18;7.37;;;;;;;10.52;54.66;100417.41;1804214;78;21024;-69
2021/12/14 10:24:20;;;;;;;7.78;6.90;;;;;;;10.53;54.64;100420.42;1799182;78;21702;-68
2021/12/14 10:26:52;;;;;;;8.40;7.60;;;;;;;10.54;54.63;100423.41;1804981;78;21107;-68
2021/12/14 10:29:18;;;;;;;8.75;7.85;;;;;;;10.53;54.65;100420.42;1801407;78;21113;-69
2021/12/14 10:31:50;;;;;;;10.48;7.25;;;;;;;10.52;54.60;100422.22;1790029;78;22050;-66
2021/12/14 10:34:22;;;;;;;8.73;7.83;;;;;;;10.54;54.59;100427.39;1805527;78;21114;-66
2021/12/14 10:36:58;;;;;;;8.25;7.30;;;;;;;10.54;54.61;100424.73;1800024;78;21080;-66
2021/12/14 10:39:37;;;;;;;8.20;7.17;;;;;;;10.53;54.60;100430.55;1805984;78;21051;-65
2021/12/14 10:44:44;;;;;;;7.30;6.58;;;;;;;10.53;54.57;100423.91;1832656;77;21053;-66
2021/12/14 10:47:13;;;;;;;8.38;7.58;;;;;;;10.52;54.57;100416.91;1831949;77;21427;-66
2021/12/14 10:49:40;;;;;;;7.70;6.90;;;;;;;10.52;54.58;100418.23;1837839;77;22392;-66
2021/12/14 10:52:14;;;;;;;8.93;7.62;;;;;;;10.52;54.57;100421.39;1838675;77;21025;-68
2021/12/14 10:54:41;;;;;;;8.98;7.83;;;;;;;10.53;54.57;100422.58;1832570;77;21124;-65
2021/12/14 10:57:12;;;;;;;8.18;7.30;;;;;;;10.53;54.56;100423.08;1820030;77;21053;-66
2021/12/14 10:59:42;;;;;;;8.03;7.22;;;;;;;10.53;54.53;100420.42;1833565;77;21080;-68
2021/12/14 11:02:09;;;;;;;9.23;7.50;;;;;;;10.52;54.54;100423.55;1831498;77;21087;-67
2021/12/14 11:04:41;;;;;;;7.85;7.15;;;;;;;10.53;54.53;100417.77;1828513;77;22336;-68
2021/12/14 11:07:21;;;;;;;8.63;7.22;;;;;;;10.53;54.53;100418.59;1839647;77;21766;-71
2021/12/14 11:09:53;;;;;;;9.35;8.33;;;;;;;10.54;54.52;100418.09;1826109;77;21075;-67
2021/12/14 11:12:27;;;;;;;8.20;7.00;;;;;;;10.53;54.50;100411.13;1792988;79;21029;-66
2021/12/14 11:15:03;;;;;;;8.13;7.28;;;;;;;10.54;54.50;100410.13;1751387;79;21062;-67
2021/12/14 11:20:25;;;;;;;8.18;6.87;;;;;;;10.53;54.49;100405.81;1781399;79;21033;-67
2021/12/14 11:23:18;;;;;;;8.63;7.08;;;;;;;10.53;54.47;100409.80;1793911;79;21046;-67
2021/12/14 11:25:53;;;;;;;7.72;6.90;;;;;;;10.52;54.51;100408.94;1791679;79;21030;-65
2021/12/14 11:28:44;;;;;;;9.18;7.35;;;;;;;10.51;54.51;100404.62;1762364;79;21056;-64
2021/12/14 11:31:34;;;;;;;8.38;7.53;;;;;;;10.51;54.51;100415.76;1784830;79;21041;-65
2021/12/14 11:34:09;;;;;;;8.53;7.62;;;;;;;10.51;54.50;100413.92;1760574;79;21924;-64
2021/12/14 11:36:52;;;;;;;8.50;7.05;;;;;;;10.50;54.53;100412.74;1782679;79;20978;-63
2021/12/14 11:39:29;;;;;;;8.65;6.95;;;;;;;10.49;54.53;100417.23;1780107;79;21030;-63
2021/12/14 11:42:09;;;;;;;7.83;6.97;;;;;;;10.50;54.54;100414.07;1764982;79;21083;-64
2021/12/14 11:44:39;;;;;;;9.43;8.15;;;;;;;10.49;54.52;100423.02;1780470;79;21600;-62
2021/12/14 11:47:41;;;;;;;8.33;7.15;;;;;;;10.49;54.53;100422.55;1774475;80;21785;-64
2021/12/14 11:49:56;;;;;;;7.87;6.55;;;;;;;10.49;54.52;100427.00;1780175;79;21018;-63
2021/12/14 11:52:52;;;;;;;8.73;7.78;;;;;;;10.50;54.52;100432.16;1760438;79;21080;-63
2021/12/14 11:55:47;;;;;;;8.98;7.40;;;;;;;10.50;54.51;100430.84;1797723;78;21717;-64
2021/12/14 11:58:40;;;;;;;7.67;6.87;;;;;;;10.50;54.52;100424.70;1781337;80;21462;-63
2021/12/14 12:01:18;;;;;;;8.60;7.42;;;;;;;10.47;54.50;100425.84;1796611;78;21823;-64
2021/12/14 12:04:10;;;;;;;8.38;7.30;;;;;;;10.48;54.51;100428.00;1758523;80;21089;-64
2021/12/14 12:09:36;;;;;;;8.08;7.28;;;;;;;10.47;54.50;100428.97;1775756;80;21006;-63
2021/12/14 12:12:16;;;;;;;9.55;7.62;;;;;;;10.48;54.53;100430.66;1800390;78;21029;-63
2021/12/14 12:15:01;;;;;;;8.78;7.65;;;;;;;10.47;54.51;100428.50;1804774;78;21042;-63
2021/12/14 12:17:52;;;;;;;8.48;7.40;;;;;;;10.47;54.51;100433.81;1772887;80;21584;-65
2021/12/14 12:20:41;;;;;;;9.60;8.15;;;;;;;10.47;54.53;100432.95;1804648;78;21069;-66
2021/12/14 12:23:15;;;;;;;8.90;7.30;;;;;;;10.47;54.53;100426.31;1804390;78;21025;-67
2021/12/14 12:25:57;;;;;;;9.30;7.05;;;;;;;10.46;54.53;100424.16;1807093;78;21443;-67